Latest Weather Observations for Perth

IDW60801

Issued at 4:05 pm WST Sunday 21 September 2014 (issued every 30 minutes, with the page automatically refreshed every 10 minutes)

About weather observations | Map of weather stations | Latest weather observations for WA | Other Formats
Station Details ID: 009225 Name: PERTH METRO Lat: -31.92 Lon: 115.87 Height: 24.9 m
Data from the previous 72 hours. | See also: Recent months at Perth
Date/Time
WST
Temp
°C
App
Temp
°C
Dew
Point
Rel
Hum
%
Delta-T
°C
Wind Press
QNH
hPa
Press
MSL
hPa
Rain
since 9 am
mm
Dir
 
Spd
km/h
Gust
km/h
Spd
kts
Gust
kts
21/04:00pm 14.3 13.2 13.0 92 0.7 N 11 20 6 11 1008.5 1008.5 14.6
21/03:30pm 14.7 14.2 13.7 94 0.6 N 9 13 5 7 1007.8 1007.8 14.6
21/03:00pm 14.4 14.7 13.4 94 0.6 NNW 4 7 2 4 1008.0 1008.0 14.6
21/02:30pm 14.2 14.1 13.2 94 0.6 N 6 9 3 5 1008.5 1008.5 14.0
21/02:00pm 14.5 15.3 13.7 95 0.4 WNW 2 7 1 4 1007.7 1007.7 13.8
21/01:30pm 14.0 13.6 13.1 94 0.5 W 7 13 4 7 1007.9 1007.9 13.0
21/01:00pm 14.2 13.1 13.2 94 0.6 WSW 11 26 6 14 1007.7 1007.7 11.2
21/12:30pm 14.3 12.5 13.3 94 0.6 W 15 28 8 15 1008.0 1008.0 8.8
21/12:00pm 14.4 12.2 13.4 94 0.6 WSW 17 33 9 18 1007.3 1007.3 7.0
21/11:30am 14.6 11.9 13.6 94 0.6 WSW 20 32 11 17 1007.3 1007.3 4.4
21/11:00am 14.9 11.5 13.6 92 0.7 WSW 24 43 13 23 1006.4 1006.4 3.0
21/10:30am 15.1 13.1 13.8 92 0.7 WSW 17 32 9 17 1006.1 1006.1 2.2
21/10:00am 16.0 13.2 14.4 90 0.9 WSW 22 35 12 19 1005.3 1005.3 1.0
21/09:57am 16.0 13.1 14.0 88 1.1 WSW 22 35 12 19 1005.4 1005.4 0.6
21/09:42am 21.0 16.7 13.2 61 4.5 N 28 56 15 30 1004.5 1004.5 0.0
21/09:30am 21.7 17.9 12.5 56 5.2 N 24 52 13 28 1004.4 1004.4 0.0
21/09:20am 21.6 17.1 12.5 56 5.2 N 28 50 15 27 1004.6 1004.6 0.0
21/09:00am 21.7 18.2 12.3 55 5.3 N 22 44 12 24 1004.5 1004.5 0.0
21/08:30am 21.3 18.3 11.9 55 5.3 N 19 35 10 19 1004.9 1004.9 0.0
21/08:00am 20.4 16.2 11.1 55 5.1 N 24 43 13 23 1005.2 1005.2 0.0
21/07:30am 19.6 16.7 10.9 57 4.7 N 17 33 9 18 1005.7 1005.7 0.0
21/07:00am 18.1 14.8 11.0 63 3.9 NNE 19 26 10 14 1005.4 1005.4 0.0
21/06:30am 17.6 15.2 11.4 67 3.4 NNE 15 24 8 13 1005.8 1005.8 0.0
21/06:00am 17.1 15.5 11.6 70 3.0 N 11 17 6 9 1006.1 1006.1 0.0
21/05:30am 17.0 15.4 11.7 71 2.9 N 11 20 6 11 1006.1 1006.1 0.0
21/05:00am 16.7 15.5 11.6 72 2.8 NNE 9 15 5 8 1006.3 1006.3 0.0
21/04:30am 16.8 15.2 11.7 72 2.8 N 11 20 6 11 1006.5 1006.5 0.0
21/04:00am 17.2 15.3 11.9 71 2.9 NNE 13 22 7 12 1006.6 1006.6 0.0
21/03:30am 17.0 15.6 12.1 73 2.7 N 11 17 6 9 1006.9 1006.9 0.0
21/03:00am 16.9 15.4 13.0 78 2.2 NNE 13 19 7 10 1007.3 1007.3 0.0
21/02:30am 16.7 16.0 14.2 85 1.4 N 11 19 6 10 1007.8 1007.8 0.0
21/02:00am 16.4 15.7 14.2 87 1.3 NNE 11 22 6 12 1008.3 1008.3 0.0
21/01:30am 16.3 15.1 14.1 87 1.3 NNE 13 17 7 9 1008.8 1008.8 0.0
21/01:00am 16.0 15.9 14.0 88 1.1 NNE 7 11 4 6 1009.2 1009.2 0.0
21/12:30am 16.2 16.1 13.9 86 1.3 NE 7 9 4 5 1009.5 1009.5 0.0
21/12:00am 16.5 16.1 14.2 86 1.3 NNE 9 11 5 6 1010.1 1010.1 0.0
 
Date/Time
WST
Temp
°C
App
Temp
°C
Dew
Point
Rel
Hum
%
Delta-T
°C
Wind Press
QNH
hPa
Press
MSL
hPa
Rain
since 9 am
mm
Dir
 
Spd
km/h
Gust
km/h
Spd
kts
Gust
kts
20/11:30pm 16.5 17.9 14.5 88 1.1 CALM 0 0 0 0 1010.3 1010.3 0.0
20/11:00pm 17.4 17.6 14.7 84 1.6 NNE 7 11 4 6 1011.2 1011.2 0.0
20/10:30pm 18.2 18.7 15.5 84 1.6 NNE 7 11 4 6 1011.7 1011.7 0.0
20/10:00pm 18.8 19.9 15.7 82 1.8 N 4 11 2 6 1012.3 1012.2 0.0
20/09:30pm 19.7 20.1 16.3 81 2.0 N 9 15 5 8 1012.7 1012.6 0.0
20/09:00pm 20.0 20.4 16.2 79 2.3 N 9 17 5 9 1012.8 1012.7 0.0
20/08:30pm 20.3 19.9 16.1 77 2.5 N 13 22 7 12 1012.6 1012.5 0.0
20/08:00pm 20.3 19.9 16.3 78 2.4 N 13 20 7 11 1012.7 1012.6 0.0
20/07:30pm 20.4 20.8 16.4 78 2.4 N 9 17 5 9 1012.5 1012.4 0.0
20/07:00pm 20.7 20.8 16.5 77 2.5 NNW 11 24 6 13 1012.4 1012.3 0.0
20/06:30pm 21.0 21.5 16.6 76 2.7 N 9 17 5 9 1012.1 1012.1 0.0
20/06:00pm 21.6 21.7 16.6 73 3.0 NNW 11 20 6 11 1011.7 1011.7 0.0
20/05:30pm 22.7 20.9 14.5 60 4.8 NW 17 37 9 20 1011.3 1011.3 0.0
20/05:00pm 23.9 20.7 11.2 44 7.1 NNW 19 33 10 18 1010.6 1010.6 0.0
20/04:30pm 25.7 21.6 7.8 32 9.5 NW 19 32 10 17 1009.6 1009.6 0.0
20/04:00pm 26.7 23.8 9.5 34 9.5 WNW 15 28 8 15 1009.3 1009.3 0.0
20/03:30pm 26.3 23.1 10.0 36 9.1 WNW 17 35 9 19 1009.3 1009.3 0.0
20/03:00pm 28.1 25.3 14.3 42 8.3 WNW 22 43 12 23 1009.4 1009.4 0.0
20/02:57pm 28.9 25.6 12.8 37 9.5 WNW 22 43 12 23 1009.2 1009.2 0.0
20/02:30pm 33.9 28.5 4.6 16 15.5 N 22 37 12 20 1008.7 1008.7 0.0
20/02:00pm 33.2 27.7 4.0 16 15.3 N 22 46 12 25 1009.1 1009.1 0.0
20/01:30pm 32.9 29.5 7.7 21 13.9 N 15 22 8 12 1009.8 1009.8 0.0
20/01:00pm 31.9 27.7 8.2 23 13.2 NNE 20 37 11 20 1010.4 1010.4 0.0
20/12:30pm 30.5 27.5 10.5 29 11.4 NE 17 28 9 15 1011.0 1011.0 0.0
20/12:00pm 29.2 25.4 9.8 30 10.9 NE 20 33 11 18 1011.7 1011.7 0.0
20/11:30am 28.3 24.2 10.0 32 10.3 NE 22 37 12 20 1012.1 1012.1 0.0
20/11:00am 27.3 23.3 10.5 35 9.5 NE 22 41 12 22 1012.8 1012.7 0.0
20/10:30am 25.8 21.1 9.2 35 9.1 NE 24 39 13 21 1013.3 1013.2 0.0
20/10:00am 24.8 20.1 9.1 37 8.5 NE 24 39 13 21 1013.7 1013.6 0.0
20/09:30am 24.1 20.2 9.3 39 8.0 NNE 20 39 11 21 1013.9 1013.8 0.0
20/09:00am 23.2 18.9 7.7 37 8.1 NE 20 35 11 19 1014.2 1014.1 0.0
20/08:30am 21.9 17.7 8.4 42 7.1 NE 20 33 11 18 1014.4 1014.3 0.0
20/08:00am 20.7 16.5 8.4 45 6.4 NE 20 33 11 18 1014.6 1014.5 0.0
20/07:30am 19.3 16.5 8.6 50 5.6 ENE 13 28 7 15 1014.9 1014.8 0.0
20/07:00am 17.5 15.4 8.4 55 4.7 ENE 9 20 5 11 1015.0 1014.9 0.0
20/06:30am 15.2 13.5 8.4 64 3.4 ENE 7 11 4 6 1015.1 1015.0 0.0
20/06:00am 15.7 13.7 8.7 63 3.6 ENE 9 15 5 8 1015.3 1015.2 0.0
20/05:30am 15.4 13.6 9.3 67 3.1 ENE 9 17 5 9 1015.4 1015.3 0.0
20/05:00am 13.4 12.3 10.0 80 1.8 E 6 9 3 5 1015.6 1015.5 0.0
20/04:30am 13.2 12.2 10.4 83 1.5 E 6 7 3 4 1015.7 1015.6 0.0
20/04:00am 13.8 14.0 10.4 80 1.8 CALM 0 6 0 3 1015.9 1015.8 0.0
20/03:30am 14.6 13.5 10.6 77 2.1 E 7 11 4 6 1016.1 1016.0 0.0
20/03:00am 15.2 14.3 10.8 75 2.3 ENE 6 11 3 6 1016.7 1016.6 0.0
20/02:30am 15.5 14.5 10.9 74 2.4 E 7 17 4 9 1016.9 1016.8 0.0
20/02:00am 15.7 14.7 11.1 74 2.5 E 7 17 4 9 1016.8 1016.7 0.0
20/01:30am 13.7 13.4 12.6 93 0.6 SE 6 19 3 10 1017.1 1017.0 0.0
20/01:00am 13.5 14.3 12.6 94 0.5 CALM 0 0 0 0 1017.6 1017.5 0.0
20/12:30am 13.8 14.6 12.5 92 0.7 CALM 0 0 0 0 1018.0 1017.9 0.0
20/12:00am 14.7 15.8 13.4 92 0.7 CALM 0 0 0 0 1018.3 1018.2 0.0
 
Date/Time
WST
Temp
°C
App
Temp
°C
Dew
Point
Rel
Hum
%
Delta-T
°C
Wind Press
QNH
hPa
Press
MSL
hPa
Rain
since 9 am
mm
Dir
 
Spd
km/h
Gust
km/h
Spd
kts
Gust
kts
19/11:30pm 15.5 15.5 13.7 89 1.0 SSE 6 7 3 4 1018.5 1018.4 0.0
19/11:00pm 16.5 16.4 14.0 85 1.4 SSE 7 11 4 6 1018.9 1018.8 0.0
19/10:30pm 17.0 16.6 14.1 83 1.7 SSE 9 13 5 7 1019.3 1019.2 0.0
19/10:00pm 17.6 17.2 14.1 80 2.0 SSE 9 15 5 8 1019.6 1019.6 0.0
19/09:30pm 18.1 17.7 14.2 78 2.2 S 9 13 5 7 1020.0 1020.0 0.0
19/09:00pm 18.3 17.9 14.0 76 2.5 S 9 15 5 8 1020.2 1020.2 0.0
19/08:30pm 18.5 18.4 13.8 74 2.7 S 7 11 4 6 1020.3 1020.3 0.0
19/08:00pm 18.8 18.2 13.4 71 3.1 S 9 13 5 7 1020.3 1020.3 0.0
19/07:30pm 18.6 18.5 13.2 71 3.1 S 6 11 3 6 1020.2 1020.2 0.0
19/07:00pm 19.1 19.1 14.1 73 2.9 S 7 13 4 7 1020.1 1020.1 0.0
19/06:30pm 19.6 19.5 14.0 70 3.2 SSW 7 13 4 7 1019.9 1019.9 0.0
19/06:00pm 20.4 19.9 13.8 66 3.8 SW 9 13 5 7 1019.6 1019.6 0.0
19/05:30pm 21.3 20.8 13.7 62 4.4 SW 9 17 5 9 1019.5 1019.5 0.0
19/05:00pm 22.1 20.7 13.5 58 5.0 SW 13 19 7 10 1019.3 1019.2 0.0
19/04:30pm 22.7 21.3 13.5 56 5.3 WSW 13 20 7 11 1019.3 1019.2 0.0
19/04:00pm 23.6 22.3 13.8 54 5.7 SW 13 20 7 11 1019.2 1019.1 0.0
19/03:30pm 24.4 23.7 14.2 53 6.0 SW 11 19 6 10 1019.2 1019.1 0.0
19/03:00pm 24.1 23.2 13.6 52 6.1 SW 11 19 6 10 1019.3 1019.2 0.0
19/02:30pm 24.0 23.0 13.5 52 6.1 S 11 17 6 9 1019.5 1019.5 0.0
19/02:00pm 24.1 22.5 12.7 49 6.5 S 13 20 7 11 1019.8 1019.8 0.0
19/01:30pm 24.0 23.3 13.2 50 6.3 SSW 9 17 5 9 1020.2 1020.2 0.0
19/01:00pm 23.4 22.6 13.0 52 6.0 S 9 15 5 8 1020.6 1020.6 0.0
19/12:30pm 22.9 22.2 11.9 50 6.2 SSW 7 15 4 8 1021.2 1021.2 0.0
19/12:00pm 23.0 22.7 13.2 54 5.6 ESE 7 13 4 7 1021.6 1021.6 0.0
19/11:30am 22.3 21.8 12.8 55 5.4 ENE 7 15 4 8 1022.1 1022.1 0.0
19/11:00am 21.8 21.1 13.2 58 4.9 SSE 9 15 5 8 1022.3 1022.3 0.0
19/10:30am 21.6 20.9 14.3 63 4.3 S 11 17 6 9 1022.5 1022.5 0.0
19/10:00am 20.9 21.0 13.8 64 4.1 SSE 6 17 3 9 1022.7 1022.7 0.0
19/09:30am 19.3 19.0 13.2 68 3.5 SSE 7 13 4 7 1022.9 1022.9 0.0
19/09:00am 19.2 19.1 14.0 72 3.0 SE 7 11 4 6 1023.0 1023.0 0.0
19/08:30am 18.2 18.1 13.9 76 2.5 SE 7 11 4 6 1022.9 1022.9 0.0
19/08:00am 16.7 16.6 13.4 81 1.8 E 6 9 3 5 1022.6 1022.6 0.0
19/07:30am 14.8 16.1 14.0 95 0.5 CALM 0 0 0 0 1022.4 1022.4 0.0
19/07:00am 12.6 12.9 12.1 97 0.3 E 2 7 1 4 1021.9 1021.9 0.0
19/06:30am 11.3 11.5 10.7 96 0.3 CALM 0 0 0 0 1021.6 1021.6 0.0
19/06:00am 11.5 11.8 10.9 96 0.3 CALM 0 0 0 0 1021.4 1021.4 0.0
19/05:30am 11.3 11.5 10.4 94 0.5 CALM 0 0 0 0 1021.1 1021.1 0.0
19/05:00am 12.0 12.4 11.1 94 0.5 CALM 0 0 0 0 1020.9 1020.9 0.0
19/04:30am 12.3 12.7 11.4 94 0.5 CALM 0 0 0 0 1020.7 1020.7 0.0
19/04:00am 12.7 13.1 11.4 92 0.7 CALM 0 0 0 0 1020.7 1020.7 0.0
19/03:30am 13.5 14.1 11.9 90 0.9 CALM 0 0 0 0 1020.6 1020.6 0.0
19/03:00am 14.8 15.6 12.5 86 1.3 CALM 0 4 0 2 1020.6 1020.6 0.0
19/02:30am 16.1 15.8 12.8 81 1.8 SSE 6 9 3 5 1020.8 1020.8 0.0
19/02:00am 16.3 17.3 13.2 82 1.7 CALM 0 0 0 0 1020.9 1020.9 0.0
19/01:30am 16.4 16.0 13.1 81 1.8 SSE 7 9 4 5 1020.8 1020.8 0.0
19/01:00am 16.2 15.9 13.3 83 1.6 SSE 7 9 4 5 1021.0 1021.0 0.0
19/12:30am 15.9 15.6 13.2 84 1.5 SSE 7 9 4 5 1021.0 1021.0 0.0
19/12:00am 15.5 16.1 13.0 85 1.4 SSE 2 7 1 4 1020.9 1020.9 0.0
 
Date/Time
WST
Temp
°C
App
Temp
°C
Dew
Point
Rel
Hum
%
Delta-T
°C
Wind Press
QNH
hPa
Press
MSL
hPa
Rain
since 9 am
mm
Dir
 
Spd
km/h
Gust
km/h
Spd
kts
Gust
kts
18/11:30pm 15.6 15.2 12.9 84 1.5 S 7 9 4 5 1021.0 1021.0 0.0
18/11:00pm 16.2 15.9 12.7 80 1.9 SSE 6 9 3 5 1020.9 1020.9 0.0
18/10:30pm 16.7 16.2 12.8 78 2.2 SSW 7 11 4 6 1021.2 1021.2 0.0
18/10:00pm 17.4 16.2 12.9 75 2.5 S 11 22 6 12 1021.1 1021.1 0.0
18/09:30pm 17.7 16.6 13.0 74 2.6 S 11 20 6 11 1021.1 1021.1 0.0
18/09:00pm 17.6 16.9 13.3 76 2.4 SSW 9 15 5 8 1020.9 1020.9 0.0
18/08:30pm 17.8 16.4 13.5 76 2.4 SSW 13 24 7 13 1020.7 1020.7 0.0
18/08:00pm 17.8 16.9 13.7 77 2.3 SW 11 24 6 13 1020.4 1020.4 0.0
18/07:30pm 17.4 16.9 13.7 79 2.1 SSW 9 17 5 9 1020.0 1020.0 0.0
18/07:00pm 17.4 15.4 13.9 80 2.0 SW 17 28 9 15 1019.6 1019.6 0.0
18/06:30pm 17.4 16.6 13.9 80 2.0 SW 11 19 6 10 1019.2 1019.1 0.0
18/06:00pm 18.1 16.5 13.8 76 2.4 SW 15 26 8 14 1018.8 1018.7 0.0
18/05:30pm 18.7 16.4 14.2 75 2.6 SW 19 30 10 16 1018.2 1018.1 0.0
18/05:00pm 19.6 17.7 14.2 71 3.1 SW 17 26 9 14 1017.9 1017.8 0.0
18/04:30pm 20.1 17.8 14.7 71 3.2 SSW 20 33 11 18 1017.6 1017.5 0.0

Other Formats:

Comma delimited format used in spreadsheet applications
http://www.bom.gov.au/fwo/IDW60801/IDW60801.94608.axf

JavaScript Object Notation format (JSON) in row-major order
http://www.bom.gov.au/fwo/IDW60801/IDW60801.94608.json